sensor_id;sensor_type;location;lat;lon;timestamp;temperature;humidity
18506;DHT22;9382;53.242;10.438;2023-11-19T00:00:07;5.50;99.90
18506;DHT22;9382;53.242;10.438;2023-11-19T00:02:37;5.50;99.90
18506;DHT22;9382;53.242;10.438;2023-11-19T00:05:05;5.50;99.90
18506;DHT22;9382;53.242;10.438;2023-11-19T00:07:35;5.50;99.90
18506;DHT22;9382;53.242;10.438;2023-11-19T00:10:05;5.50;99.90
18506;DHT22;9382;53.242;10.438;2023-11-19T00:12:40;5.50;99.90
18506;DHT22;9382;53.242;10.438;2023-11-19T00:15:11;5.50;99.90
18506;DHT22;9382;53.242;10.438;2023-11-19T00:17:40;5.50;99.90
18506;DHT22;9382;53.242;10.438;2023-11-19T00:20:10;5.50;99.90
18506;DHT22;9382;53.242;10.438;2023-11-19T00:22:39;5.50;99.90
18506;DHT22;9382;53.242;10.438;2023-11-19T00:25:08;5.60;99.90
18506;DHT22;9382;53.242;10.438;2023-11-19T00:27:37;5.60;99.90
18506;DHT22;9382;53.242;10.438;2023-11-19T00:30:07;5.60;99.90
18506;DHT22;9382;53.242;10.438;2023-11-19T00:32:34;5.60;99.90
18506;DHT22;9382;53.242;10.438;2023-11-19T00:35:02;5.60;99.90
18506;DHT22;9382;53.242;10.438;2023-11-19T00:37:29;5.60;99.90
18506;DHT22;9382;53.242;10.438;2023-11-19T00:39:57;5.60;99.90
18506;DHT22;9382;53.242;10.438;2023-11-19T00:42:24;5.60;99.90
18506;DHT22;9382;53.242;10.438;2023-11-19T00:44:52;5.60;99.90
18506;DHT22;9382;53.242;10.438;2023-11-19T00:47:21;5.60;99.90
18506;DHT22;9382;53.242;10.438;2023-11-19T00:49:48;5.60;99.90
18506;DHT22;9382;53.242;10.438;2023-11-19T00:52:15;5.60;99.90
18506;DHT22;9382;53.242;10.438;2023-11-19T00:54:42;5.70;99.90
18506;DHT22;9382;53.242;10.438;2023-11-19T00:57:10;5.60;99.90
18506;DHT22;9382;53.242;10.438;2023-11-19T00:59:37;5.70;99.90
18506;DHT22;9382;53.242;10.438;2023-11-19T01:02:04;5.70;99.90
18506;DHT22;9382;53.242;10.438;2023-11-19T01:04:33;5.70;99.90
18506;DHT22;9382;53.242;10.438;2023-11-19T01:07:01;5.70;99.90
18506;DHT22;9382;53.242;10.438;2023-11-19T01:09:31;5.70;99.90
18506;DHT22;9382;53.242;10.438;2023-11-19T01:12:00;5.70;99.90
18506;DHT22;9382;53.242;10.438;2023-11-19T01:14:28;5.70;99.90
18506;DHT22;9382;53.242;10.438;2023-11-19T01:16:58;5.70;99.90
18506;DHT22;9382;53.242;10.438;2023-11-19T01:19:25;5.70;99.90
18506;DHT22;9382;53.242;10.438;2023-11-19T01:21:52;5.60;99.90
18506;DHT22;9382;53.242;10.438;2023-11-19T01:24:19;5.70;99.90
18506;DHT22;9382;53.242;10.438;2023-11-19T01:26:46;5.70;99.90
18506;DHT22;9382;53.242;10.438;2023-11-19T01:29:13;5.70;99.90
18506;DHT22;9382;53.242;10.438;2023-11-19T01:31:42;5.70;99.90
18506;DHT22;9382;53.242;10.438;2023-11-19T01:34:08;5.70;99.90
18506;DHT22;9382;53.242;10.438;2023-11-19T01:36:37;5.70;99.90
18506;DHT22;9382;53.242;10.438;2023-11-19T01:39:05;5.70;99.90
18506;DHT22;9382;53.242;10.438;2023-11-19T01:41:34;5.70;99.90
18506;DHT22;9382;53.242;10.438;2023-11-19T01:44:02;5.70;99.90
18506;DHT22;9382;53.242;10.438;2023-11-19T01:46:29;5.70;99.90
18506;DHT22;9382;53.242;10.438;2023-11-19T01:48:59;5.70;99.90
18506;DHT22;9382;53.242;10.438;2023-11-19T01:51:27;5.70;99.90
18506;DHT22;9382;53.242;10.438;2023-11-19T01:53:55;5.70;99.90
18506;DHT22;9382;53.242;10.438;2023-11-19T01:56:22;5.70;99.90
18506;DHT22;9382;53.242;10.438;2023-11-19T01:58:50;5.70;99.90
18506;DHT22;9382;53.242;10.438;2023-11-19T02:01:17;5.70;99.90
18506;DHT22;9382;53.242;10.438;2023-11-19T02:03:43;5.70;99.90
18506;DHT22;9382;53.242;10.438;2023-11-19T02:06:13;5.70;99.90
18506;DHT22;9382;53.242;10.438;2023-11-19T02:08:43;5.80;99.90
18506;DHT22;9382;53.242;10.438;2023-11-19T02:11:10;5.80;99.90
18506;DHT22;9382;53.242;10.438;2023-11-19T02:13:37;5.80;99.90
18506;DHT22;9382;53.242;10.438;2023-11-19T02:16:07;5.80;99.90
18506;DHT22;9382;53.242;10.438;2023-11-19T02:18:38;5.80;99.90
18506;DHT22;9382;53.242;10.438;2023-11-19T02:21:05;5.80;99.90
18506;DHT22;9382;53.242;10.438;2023-11-19T02:23:36;5.80;99.90
18506;DHT22;9382;53.242;10.438;2023-11-19T02:26:12;5.80;99.90
18506;DHT22;9382;53.242;10.438;2023-11-19T02:28:41;5.90;99.90
18506;DHT22;9382;53.242;10.438;2023-11-19T02:31:09;5.90;99.90
18506;DHT22;9382;53.242;10.438;2023-11-19T02:33:36;5.90;99.90
18506;DHT22;9382;53.242;10.438;2023-11-19T02:36:03;5.90;99.90
18506;DHT22;9382;53.242;10.438;2023-11-19T02:38:34;5.90;99.90
18506;DHT22;9382;53.242;10.438;2023-11-19T02:41:03;5.90;99.90
18506;DHT22;9382;53.242;10.438;2023-11-19T02:43:31;5.90;99.90
18506;DHT22;9382;53.242;10.438;2023-11-19T02:46:03;5.90;99.90
18506;DHT22;9382;53.242;10.438;2023-11-19T02:48:32;6.00;99.90
18506;DHT22;9382;53.242;10.438;2023-11-19T02:51:06;6.00;99.90
18506;DHT22;9382;53.242;10.438;2023-11-19T02:53:37;6.00;99.90
18506;DHT22;9382;53.242;10.438;2023-11-19T02:56:07;6.00;99.90
18506;DHT22;9382;53.242;10.438;2023-11-19T02:58:42;6.00;99.90
18506;DHT22;9382;53.242;10.438;2023-11-19T03:01:11;6.00;99.90
18506;DHT22;9382;53.242;10.438;2023-11-19T03:03:48;6.10;99.90
18506;DHT22;9382;53.242;10.438;2023-11-19T03:06:19;6.10;99.90
18506;DHT22;9382;53.242;10.438;2023-11-19T03:08:47;6.10;99.90
18506;DHT22;9382;53.242;10.438;2023-11-19T03:11:14;6.10;99.90
18506;DHT22;9382;53.242;10.438;2023-11-19T03:13:43;6.20;99.90
18506;DHT22;9382;53.242;10.438;2023-11-19T03:16:13;6.20;99.90
18506;DHT22;9382;53.242;10.438;2023-11-19T03:18:40;6.20;99.90
18506;DHT22;9382;53.242;10.438;2023-11-19T03:21:10;6.20;99.90
18506;DHT22;9382;53.242;10.438;2023-11-19T03:23:38;6.30;99.90
18506;DHT22;9382;53.242;10.438;2023-11-19T03:26:06;6.20;99.90
18506;DHT22;9382;53.242;10.438;2023-11-19T03:28:34;6.30;99.90
18506;DHT22;9382;53.242;10.438;2023-11-19T03:31:04;6.30;99.90
18506;DHT22;9382;53.242;10.438;2023-11-19T03:33:35;6.30;99.90
18506;DHT22;9382;53.242;10.438;2023-11-19T03:36:03;6.30;99.90
18506;DHT22;9382;53.242;10.438;2023-11-19T03:38:32;6.30;99.90
18506;DHT22;9382;53.242;10.438;2023-11-19T03:40:59;6.30;99.90
18506;DHT22;9382;53.242;10.438;2023-11-19T03:43:26;6.40;99.90
18506;DHT22;9382;53.242;10.438;2023-11-19T03:45:56;6.40;99.90
18506;DHT22;9382;53.242;10.438;2023-11-19T03:48:30;6.40;99.90
18506;DHT22;9382;53.242;10.438;2023-11-19T03:50:58;6.40;99.90
18506;DHT22;9382;53.242;10.438;2023-11-19T03:53:25;6.40;99.90
18506;DHT22;9382;53.242;10.438;2023-11-19T03:55:52;6.40;99.90
18506;DHT22;9382;53.242;10.438;2023-11-19T03:58:19;6.50;99.90
18506;DHT22;9382;53.242;10.438;2023-11-19T04:00:46;6.50;99.90
18506;DHT22;9382;53.242;10.438;2023-11-19T04:03:13;6.50;99.90
18506;DHT22;9382;53.242;10.438;2023-11-19T04:05:39;6.50;99.90
18506;DHT22;9382;53.242;10.438;2023-11-19T04:08:08;6.60;99.90
18506;DHT22;9382;53.242;10.438;2023-11-19T04:10:35;6.60;99.90
18506;DHT22;9382;53.242;10.438;2023-11-19T04:13:01;6.70;99.90
18506;DHT22;9382;53.242;10.438;2023-11-19T04:15:28;6.70;99.90
18506;DHT22;9382;53.242;10.438;2023-11-19T04:17:55;6.70;99.90
18506;DHT22;9382;53.242;10.438;2023-11-19T04:20:22;6.70;99.90
18506;DHT22;9382;53.242;10.438;2023-11-19T04:22:50;6.70;99.90
18506;DHT22;9382;53.242;10.438;2023-11-19T04:25:18;6.80;99.90
18506;DHT22;9382;53.242;10.438;2023-11-19T04:27:44;6.80;99.90
18506;DHT22;9382;53.242;10.438;2023-11-19T04:30:16;6.90;99.90
18506;DHT22;9382;53.242;10.438;2023-11-19T04:32:43;6.90;99.90
18506;DHT22;9382;53.242;10.438;2023-11-19T04:35:10;7.00;99.90
18506;DHT22;9382;53.242;10.438;2023-11-19T04:37:37;7.00;99.90
18506;DHT22;9382;53.242;10.438;2023-11-19T04:40:05;7.10;99.90
18506;DHT22;9382;53.242;10.438;2023-11-19T04:42:33;7.10;99.90
18506;DHT22;9382;53.242;10.438;2023-11-19T04:45:00;7.20;99.90
18506;DHT22;9382;53.242;10.438;2023-11-19T04:47:27;7.20;99.90
18506;DHT22;9382;53.242;10.438;2023-11-19T04:49:54;7.20;99.90
18506;DHT22;9382;53.242;10.438;2023-11-19T04:52:20;7.30;99.90
18506;DHT22;9382;53.242;10.438;2023-11-19T04:54:47;7.30;99.90
18506;DHT22;9382;53.242;10.438;2023-11-19T04:57:14;7.40;99.90
18506;DHT22;9382;53.242;10.438;2023-11-19T04:59:43;7.40;99.90
18506;DHT22;9382;53.242;10.438;2023-11-19T05:02:10;7.50;99.90
18506;DHT22;9382;53.242;10.438;2023-11-19T05:04:45;7.50;99.90
18506;DHT22;9382;53.242;10.438;2023-11-19T05:07:12;7.60;99.90
18506;DHT22;9382;53.242;10.438;2023-11-19T05:09:39;7.60;99.90
18506;DHT22;9382;53.242;10.438;2023-11-19T05:12:06;7.70;99.90
18506;DHT22;9382;53.242;10.438;2023-11-19T05:14:35;7.70;99.90
18506;DHT22;9382;53.242;10.438;2023-11-19T05:17:04;7.80;99.90
18506;DHT22;9382;53.242;10.438;2023-11-19T05:19:30;7.80;99.90
18506;DHT22;9382;53.242;10.438;2023-11-19T05:21:57;7.80;99.90
18506;DHT22;9382;53.242;10.438;2023-11-19T05:24:24;8.00;99.90
18506;DHT22;9382;53.242;10.438;2023-11-19T05:26:52;8.00;99.90
18506;DHT22;9382;53.242;10.438;2023-11-19T05:29:18;8.00;99.90
18506;DHT22;9382;53.242;10.438;2023-11-19T05:31:45;8.00;99.90
18506;DHT22;9382;53.242;10.438;2023-11-19T05:34:14;8.10;99.90
18506;DHT22;9382;53.242;10.438;2023-11-19T05:36:41;8.20;99.90
18506;DHT22;9382;53.242;10.438;2023-11-19T05:39:08;8.20;99.90
18506;DHT22;9382;53.242;10.438;2023-11-19T05:41:36;8.30;99.90
18506;DHT22;9382;53.242;10.438;2023-11-19T05:44:05;8.30;99.90
18506;DHT22;9382;53.242;10.438;2023-11-19T05:46:32;8.40;99.90
18506;DHT22;9382;53.242;10.438;2023-11-19T05:48:59;8.40;99.90
18506;DHT22;9382;53.242;10.438;2023-11-19T05:51:27;8.40;99.90
18506;DHT22;9382;53.242;10.438;2023-11-19T05:53:53;8.50;99.90
18506;DHT22;9382;53.242;10.438;2023-11-19T05:56:21;8.50;99.90
18506;DHT22;9382;53.242;10.438;2023-11-19T05:58:48;8.60;99.90
18506;DHT22;9382;53.242;10.438;2023-11-19T06:01:15;8.60;99.90
18506;DHT22;9382;53.242;10.438;2023-11-19T06:03:42;8.60;99.90
18506;DHT22;9382;53.242;10.438;2023-11-19T06:06:13;8.70;99.90
18506;DHT22;9382;53.242;10.438;2023-11-19T06:08:41;8.80;99.90
18506;DHT22;9382;53.242;10.438;2023-11-19T06:11:09;8.90;99.90
18506;DHT22;9382;53.242;10.438;2023-11-19T06:13:40;9.00;99.90
18506;DHT22;9382;53.242;10.438;2023-11-19T06:16:08;9.00;99.90
18506;DHT22;9382;53.242;10.438;2023-11-19T06:18:36;9.10;99.90
18506;DHT22;9382;53.242;10.438;2023-11-19T06:21:03;9.20;99.90
18506;DHT22;9382;53.242;10.438;2023-11-19T06:23:30;9.20;99.90
18506;DHT22;9382;53.242;10.438;2023-11-19T06:25:58;9.20;99.90
18506;DHT22;9382;53.242;10.438;2023-11-19T06:28:25;9.30;99.90
18506;DHT22;9382;53.242;10.438;2023-11-19T06:30:52;9.40;99.90
18506;DHT22;9382;53.242;10.438;2023-11-19T06:33:18;9.40;99.90
18506;DHT22;9382;53.242;10.438;2023-11-19T06:35:45;9.40;99.90
18506;DHT22;9382;53.242;10.438;2023-11-19T06:38:12;9.40;99.90
18506;DHT22;9382;53.242;10.438;2023-11-19T06:40:39;9.50;99.90
18506;DHT22;9382;53.242;10.438;2023-11-19T06:43:08;9.60;99.90
18506;DHT22;9382;53.242;10.438;2023-11-19T06:45:34;9.70;99.90
18506;DHT22;9382;53.242;10.438;2023-11-19T06:48:02;9.70;99.90
18506;DHT22;9382;53.242;10.438;2023-11-19T06:50:30;9.80;99.90
18506;DHT22;9382;53.242;10.438;2023-11-19T06:52:57;9.80;99.90
18506;DHT22;9382;53.242;10.438;2023-11-19T06:55:23;9.90;99.90
18506;DHT22;9382;53.242;10.438;2023-11-19T06:57:52;10.00;99.90
18506;DHT22;9382;53.242;10.438;2023-11-19T07:00:20;10.10;99.90
18506;DHT22;9382;53.242;10.438;2023-11-19T07:02:47;10.10;99.90
18506;DHT22;9382;53.242;10.438;2023-11-19T07:05:15;10.30;99.90
18506;DHT22;9382;53.242;10.438;2023-11-19T07:07:41;10.30;99.90
18506;DHT22;9382;53.242;10.438;2023-11-19T07:10:08;10.40;99.90
18506;DHT22;9382;53.242;10.438;2023-11-19T07:12:35;10.50;99.90
18506;DHT22;9382;53.242;10.438;2023-11-19T07:15:02;10.50;99.90
18506;DHT22;9382;53.242;10.438;2023-11-19T07:17:31;10.60;99.90
18506;DHT22;9382;53.242;10.438;2023-11-19T07:19:58;10.70;99.90
18506;DHT22;9382;53.242;10.438;2023-11-19T07:22:25;10.80;99.90
18506;DHT22;9382;53.242;10.438;2023-11-19T07:24:52;10.90;99.90
18506;DHT22;9382;53.242;10.438;2023-11-19T07:27:19;11.00;99.90
18506;DHT22;9382;53.242;10.438;2023-11-19T07:29:46;11.00;99.90
18506;DHT22;9382;53.242;10.438;2023-11-19T07:32:13;11.10;99.90
18506;DHT22;9382;53.242;10.438;2023-11-19T07:34:41;11.10;99.90
18506;DHT22;9382;53.242;10.438;2023-11-19T07:37:08;11.10;99.90
18506;DHT22;9382;53.242;10.438;2023-11-19T07:39:34;11.20;99.90
18506;DHT22;9382;53.242;10.438;2023-11-19T07:42:03;11.20;99.90
18506;DHT22;9382;53.242;10.438;2023-11-19T07:44:30;11.20;99.90
18506;DHT22;9382;53.242;10.438;2023-11-19T07:46:59;11.30;99.90
18506;DHT22;9382;53.242;10.438;2023-11-19T07:49:26;11.30;99.90
18506;DHT22;9382;53.242;10.438;2023-11-19T07:51:57;11.40;99.90
18506;DHT22;9382;53.242;10.438;2023-11-19T07:54:23;11.40;99.90
18506;DHT22;9382;53.242;10.438;2023-11-19T07:56:50;11.40;99.90
18506;DHT22;9382;53.242;10.438;2023-11-19T07:59:17;11.40;99.90
18506;DHT22;9382;53.242;10.438;2023-11-19T08:01:44;11.50;99.90
18506;DHT22;9382;53.242;10.438;2023-11-19T08:04:12;11.50;99.90
18506;DHT22;9382;53.242;10.438;2023-11-19T08:06:39;11.60;99.90
18506;DHT22;9382;53.242;10.438;2023-11-19T08:09:07;11.50;99.90
18506;DHT22;9382;53.242;10.438;2023-11-19T08:11:39;11.60;99.90
18506;DHT22;9382;53.242;10.438;2023-11-19T08:14:06;11.60;99.90
18506;DHT22;9382;53.242;10.438;2023-11-19T08:16:32;11.60;99.90
18506;DHT22;9382;53.242;10.438;2023-11-19T08:19:01;11.70;99.90
18506;DHT22;9382;53.242;10.438;2023-11-19T08:21:28;11.80;99.90
18506;DHT22;9382;53.242;10.438;2023-11-19T08:23:57;11.90;99.90
18506;DHT22;9382;53.242;10.438;2023-11-19T08:26:28;12.00;99.90
18506;DHT22;9382;53.242;10.438;2023-11-19T08:28:55;12.10;99.90
18506;DHT22;9382;53.242;10.438;2023-11-19T08:31:24;12.10;99.90
18506;DHT22;9382;53.242;10.438;2023-11-19T08:33:51;12.10;99.90
18506;DHT22;9382;53.242;10.438;2023-11-19T08:36:19;12.10;99.90
18506;DHT22;9382;53.242;10.438;2023-11-19T08:38:48;12.00;99.90
18506;DHT22;9382;53.242;10.438;2023-11-19T08:41:15;12.00;99.90
18506;DHT22;9382;53.242;10.438;2023-11-19T08:43:47;12.00;99.90
18506;DHT22;9382;53.242;10.438;2023-11-19T08:46:16;12.00;99.90
18506;DHT22;9382;53.242;10.438;2023-11-19T08:48:45;12.00;99.90
18506;DHT22;9382;53.242;10.438;2023-11-19T08:51:14;12.00;99.90
18506;DHT22;9382;53.242;10.438;2023-11-19T08:53:44;12.00;99.90
18506;DHT22;9382;53.242;10.438;2023-11-19T08:56:17;12.00;99.90
18506;DHT22;9382;53.242;10.438;2023-11-19T08:59:09;12.00;99.90
18506;DHT22;9382;53.242;10.438;2023-11-19T09:01:36;12.00;99.90
18506;DHT22;9382;53.242;10.438;2023-11-19T09:04:03;11.90;99.90
18506;DHT22;9382;53.242;10.438;2023-11-19T09:06:33;11.90;99.90
18506;DHT22;9382;53.242;10.438;2023-11-19T09:09:00;11.90;99.90
18506;DHT22;9382;53.242;10.438;2023-11-19T09:11:27;11.90;99.90
18506;DHT22;9382;53.242;10.438;2023-11-19T09:14:10;11.90;99.90
18506;DHT22;9382;53.242;10.438;2023-11-19T09:16:45;11.90;99.90
18506;DHT22;9382;53.242;10.438;2023-11-19T09:19:13;11.90;99.90
18506;DHT22;9382;53.242;10.438;2023-11-19T09:21:40;11.90;99.90
18506;DHT22;9382;53.242;10.438;2023-11-19T09:24:07;11.90;99.90
18506;DHT22;9382;53.242;10.438;2023-11-19T09:26:34;12.00;99.90
18506;DHT22;9382;53.242;10.438;2023-11-19T09:29:01;12.00;99.90
18506;DHT22;9382;53.242;10.438;2023-11-19T09:31:29;12.10;99.90
18506;DHT22;9382;53.242;10.438;2023-11-19T09:33:57;12.00;99.90
18506;DHT22;9382;53.242;10.438;2023-11-19T09:36:26;12.10;99.90
18506;DHT22;9382;53.242;10.438;2023-11-19T09:38:53;12.20;99.90
18506;DHT22;9382;53.242;10.438;2023-11-19T09:41:21;12.30;99.90
18506;DHT22;9382;53.242;10.438;2023-11-19T09:43:51;12.30;99.90
18506;DHT22;9382;53.242;10.438;2023-11-19T09:46:19;12.30;99.90
18506;DHT22;9382;53.242;10.438;2023-11-19T09:48:53;12.40;99.90
18506;DHT22;9382;53.242;10.438;2023-11-19T09:51:22;12.30;99.90
18506;DHT22;9382;53.242;10.438;2023-11-19T09:53:51;12.30;99.90
18506;DHT22;9382;53.242;10.438;2023-11-19T09:56:28;12.30;99.90
18506;DHT22;9382;53.242;10.438;2023-11-19T09:58:59;12.30;99.90
18506;DHT22;9382;53.242;10.438;2023-11-19T10:01:25;12.30;99.90
18506;DHT22;9382;53.242;10.438;2023-11-19T10:03:54;12.20;99.90
18506;DHT22;9382;53.242;10.438;2023-11-19T10:06:26;12.20;99.90
18506;DHT22;9382;53.242;10.438;2023-11-19T10:08:55;12.20;99.90
18506;DHT22;9382;53.242;10.438;2023-11-19T10:11:34;12.20;99.90
18506;DHT22;9382;53.242;10.438;2023-11-19T10:14:00;12.20;99.90
18506;DHT22;9382;53.242;10.438;2023-11-19T10:16:30;12.30;99.90
18506;DHT22;9382;53.242;10.438;2023-11-19T10:19:02;12.40;99.90
18506;DHT22;9382;53.242;10.438;2023-11-19T10:21:32;12.50;99.90
18506;DHT22;9382;53.242;10.438;2023-11-19T10:24:06;12.60;99.90
18506;DHT22;9382;53.242;10.438;2023-11-19T10:26:36;12.70;99.90
18506;DHT22;9382;53.242;10.438;2023-11-19T10:29:06;12.90;99.90
18506;DHT22;9382;53.242;10.438;2023-11-19T10:31:34;12.80;99.90
18506;DHT22;9382;53.242;10.438;2023-11-19T10:34:02;12.70;99.90
18506;DHT22;9382;53.242;10.438;2023-11-19T10:36:39;12.70;99.90
18506;DHT22;9382;53.242;10.438;2023-11-19T10:39:09;12.60;99.90
18506;DHT22;9382;53.242;10.438;2023-11-19T10:41:36;12.50;99.90
18506;DHT22;9382;53.242;10.438;2023-11-19T10:44:03;12.60;99.90
18506;DHT22;9382;53.242;10.438;2023-11-19T10:46:38;12.60;99.90
18506;DHT22;9382;53.242;10.438;2023-11-19T10:49:05;12.60;99.90
18506;DHT22;9382;53.242;10.438;2023-11-19T10:51:33;12.60;99.90
18506;DHT22;9382;53.242;10.438;2023-11-19T10:54:09;12.60;99.90
18506;DHT22;9382;53.242;10.438;2023-11-19T10:56:36;12.60;99.90
18506;DHT22;9382;53.242;10.438;2023-11-19T10:59:03;12.60;99.90
18506;DHT22;9382;53.242;10.438;2023-11-19T11:01:37;12.60;99.90
18506;DHT22;9382;53.242;10.438;2023-11-19T11:04:11;12.60;99.90
18506;DHT22;9382;53.242;10.438;2023-11-19T11:06:40;12.50;99.90
18506;DHT22;9382;53.242;10.438;2023-11-19T11:09:09;12.40;99.90
18506;DHT22;9382;53.242;10.438;2023-11-19T11:11:39;12.30;99.90
18506;DHT22;9382;53.242;10.438;2023-11-19T11:14:09;12.10;99.90
18506;DHT22;9382;53.242;10.438;2023-11-19T11:16:40;12.10;99.90
18506;DHT22;9382;53.242;10.438;2023-11-19T11:19:10;12.10;99.90
18506;DHT22;9382;53.242;10.438;2023-11-19T11:21:40;12.00;99.90
18506;DHT22;9382;53.242;10.438;2023-11-19T11:24:33;12.10;99.90
18506;DHT22;9382;53.242;10.438;2023-11-19T11:30:24;12.70;99.90
18506;DHT22;9382;53.242;10.438;2023-11-19T11:33:04;12.90;99.90
18506;DHT22;9382;53.242;10.438;2023-11-19T11:35:44;12.90;99.90
18506;DHT22;9382;53.242;10.438;2023-11-19T11:38:22;12.90;99.90
18506;DHT22;9382;53.242;10.438;2023-11-19T11:41:19;13.00;99.90
18506;DHT22;9382;53.242;10.438;2023-11-19T11:43:50;12.90;99.90
18506;DHT22;9382;53.242;10.438;2023-11-19T11:49:25;13.00;99.90
18506;DHT22;9382;53.242;10.438;2023-11-19T11:52:00;13.40;99.90
18506;DHT22;9382;53.242;10.438;2023-11-19T11:54:52;13.80;99.90
18506;DHT22;9382;53.242;10.438;2023-11-19T11:57:36;14.20;99.90
18506;DHT22;9382;53.242;10.438;2023-11-19T12:00:11;14.10;99.90
18506;DHT22;9382;53.242;10.438;2023-11-19T12:02:48;14.00;99.90
18506;DHT22;9382;53.242;10.438;2023-11-19T12:05:23;13.70;99.90
18506;DHT22;9382;53.242;10.438;2023-11-19T12:07:55;13.30;99.90
18506;DHT22;9382;53.242;10.438;2023-11-19T12:10:28;13.10;99.90
18506;DHT22;9382;53.242;10.438;2023-11-19T12:13:01;12.90;99.90
18506;DHT22;9382;53.242;10.438;2023-11-19T12:15:28;12.90;99.90
18506;DHT22;9382;53.242;10.438;2023-11-19T12:17:55;13.10;99.90
18506;DHT22;9382;53.242;10.438;2023-11-19T12:20:23;13.30;99.90
18506;DHT22;9382;53.242;10.438;2023-11-19T12:22:53;13.30;99.90
18506;DHT22;9382;53.242;10.438;2023-11-19T12:25:20;13.20;99.90
18506;DHT22;9382;53.242;10.438;2023-11-19T12:27:48;13.20;99.90
18506;DHT22;9382;53.242;10.438;2023-11-19T12:30:25;13.20;99.90
18506;DHT22;9382;53.242;10.438;2023-11-19T12:32:53;13.30;99.90
18506;DHT22;9382;53.242;10.438;2023-11-19T12:35:20;13.40;99.90
18506;DHT22;9382;53.242;10.438;2023-11-19T12:37:48;13.40;99.90
18506;DHT22;9382;53.242;10.438;2023-11-19T12:40:25;13.50;99.90
18506;DHT22;9382;53.242;10.438;2023-11-19T12:42:54;13.40;99.90
18506;DHT22;9382;53.242;10.438;2023-11-19T12:45:22;13.40;99.90
18506;DHT22;9382;53.242;10.438;2023-11-19T12:47:50;13.40;99.90
18506;DHT22;9382;53.242;10.438;2023-11-19T12:50:52;13.30;99.90
18506;DHT22;9382;53.242;10.438;2023-11-19T12:53:19;13.20;99.90
18506;DHT22;9382;53.242;10.438;2023-11-19T12:55:46;13.30;99.90
18506;DHT22;9382;53.242;10.438;2023-11-19T12:58:28;13.10;99.90
18506;DHT22;9382;53.242;10.438;2023-11-19T13:01:04;13.10;99.90
18506;DHT22;9382;53.242;10.438;2023-11-19T13:03:35;13.00;99.90
18506;DHT22;9382;53.242;10.438;2023-11-19T13:06:26;13.00;99.90
18506;DHT22;9382;53.242;10.438;2023-11-19T13:09:30;13.00;99.90
18506;DHT22;9382;53.242;10.438;2023-11-19T13:11:55;12.80;99.90
18506;DHT22;9382;53.242;10.438;2023-11-19T13:14:36;12.70;99.90
18506;DHT22;9382;53.242;10.438;2023-11-19T13:17:06;12.70;99.90
18506;DHT22;9382;53.242;10.438;2023-11-19T13:19:33;12.60;99.90
18506;DHT22;9382;53.242;10.438;2023-11-19T13:22:00;12.60;99.90
18506;DHT22;9382;53.242;10.438;2023-11-19T13:24:27;12.40;99.90
18506;DHT22;9382;53.242;10.438;2023-11-19T13:26:54;12.40;99.90
18506;DHT22;9382;53.242;10.438;2023-11-19T13:29:23;12.40;99.90
18506;DHT22;9382;53.242;10.438;2023-11-19T13:31:53;12.30;99.90
18506;DHT22;9382;53.242;10.438;2023-11-19T13:34:21;12.30;99.90
18506;DHT22;9382;53.242;10.438;2023-11-19T13:36:48;12.20;99.90
18506;DHT22;9382;53.242;10.438;2023-11-19T13:39:21;12.20;99.90
18506;DHT22;9382;53.242;10.438;2023-11-19T13:41:49;12.20;99.90
18506;DHT22;9382;53.242;10.438;2023-11-19T13:44:18;12.10;99.90
18506;DHT22;9382;53.242;10.438;2023-11-19T13:46:45;12.10;99.90
18506;DHT22;9382;53.242;10.438;2023-11-19T13:49:12;12.00;99.90
18506;DHT22;9382;53.242;10.438;2023-11-19T13:51:40;12.00;99.90
18506;DHT22;9382;53.242;10.438;2023-11-19T13:54:13;12.00;99.90
18506;DHT22;9382;53.242;10.438;2023-11-19T13:56:40;12.00;99.90
18506;DHT22;9382;53.242;10.438;2023-11-19T13:59:28;12.10;99.90
18506;DHT22;9382;53.242;10.438;2023-11-19T14:02:02;12.00;99.90
18506;DHT22;9382;53.242;10.438;2023-11-19T14:04:38;12.00;99.90
18506;DHT22;9382;53.242;10.438;2023-11-19T14:07:09;11.90;99.90
18506;DHT22;9382;53.242;10.438;2023-11-19T14:09:36;11.90;99.90
18506;DHT22;9382;53.242;10.438;2023-11-19T14:12:06;11.90;99.90
18506;DHT22;9382;53.242;10.438;2023-11-19T14:14:34;11.90;99.90
18506;DHT22;9382;53.242;10.438;2023-11-19T14:17:02;11.90;99.90
18506;DHT22;9382;53.242;10.438;2023-11-19T14:19:29;11.90;99.90
18506;DHT22;9382;53.242;10.438;2023-11-19T14:22:09;11.90;99.90
18506;DHT22;9382;53.242;10.438;2023-11-19T14:24:37;11.80;99.90
18506;DHT22;9382;53.242;10.438;2023-11-19T14:27:05;11.70;99.90
18506;DHT22;9382;53.242;10.438;2023-11-19T14:29:36;11.70;99.90
18506;DHT22;9382;53.242;10.438;2023-11-19T14:32:04;11.70;99.90
18506;DHT22;9382;53.242;10.438;2023-11-19T14:34:34;11.60;99.90
18506;DHT22;9382;53.242;10.438;2023-11-19T14:37:02;11.60;99.90
18506;DHT22;9382;53.242;10.438;2023-11-19T14:39:31;11.60;99.90
18506;DHT22;9382;53.242;10.438;2023-11-19T14:42:04;11.60;99.90
18506;DHT22;9382;53.242;10.438;2023-11-19T14:44:39;11.50;99.90
18506;DHT22;9382;53.242;10.438;2023-11-19T14:47:18;11.50;99.90
18506;DHT22;9382;53.242;10.438;2023-11-19T14:49:50;11.50;99.90
18506;DHT22;9382;53.242;10.438;2023-11-19T14:52:20;11.50;99.90
18506;DHT22;9382;53.242;10.438;2023-11-19T14:54:48;11.50;99.90
18506;DHT22;9382;53.242;10.438;2023-11-19T14:57:16;11.50;99.90
18506;DHT22;9382;53.242;10.438;2023-11-19T14:59:43;11.50;99.90
18506;DHT22;9382;53.242;10.438;2023-11-19T15:02:11;11.50;99.90
18506;DHT22;9382;53.242;10.438;2023-11-19T15:04:41;11.40;99.90
18506;DHT22;9382;53.242;10.438;2023-11-19T15:07:11;11.40;99.90
18506;DHT22;9382;53.242;10.438;2023-11-19T15:09:38;11.30;99.90
18506;DHT22;9382;53.242;10.438;2023-11-19T15:12:18;11.30;99.90
18506;DHT22;9382;53.242;10.438;2023-11-19T15:14:50;11.20;99.90
18506;DHT22;9382;53.242;10.438;2023-11-19T15:17:18;11.20;99.90
18506;DHT22;9382;53.242;10.438;2023-11-19T15:19:45;11.10;99.90
18506;DHT22;9382;53.242;10.438;2023-11-19T15:22:19;11.10;99.90
18506;DHT22;9382;53.242;10.438;2023-11-19T15:24:51;11.00;99.90
18506;DHT22;9382;53.242;10.438;2023-11-19T15:27:25;11.00;99.90
18506;DHT22;9382;53.242;10.438;2023-11-19T15:29:54;11.00;99.90
18506;DHT22;9382;53.242;10.438;2023-11-19T15:32:28;10.90;99.90
18506;DHT22;9382;53.242;10.438;2023-11-19T15:35:18;10.90;99.90
18506;DHT22;9382;53.242;10.438;2023-11-19T15:37:49;10.90;99.90
18506;DHT22;9382;53.242;10.438;2023-11-19T15:40:30;10.90;99.90
18506;DHT22;9382;53.242;10.438;2023-11-19T15:43:02;10.90;99.90
18506;DHT22;9382;53.242;10.438;2023-11-19T15:45:32;10.80;99.90
18506;DHT22;9382;53.242;10.438;2023-11-19T15:48:05;10.80;99.90
18506;DHT22;9382;53.242;10.438;2023-11-19T15:50:34;10.70;99.90
18506;DHT22;9382;53.242;10.438;2023-11-19T15:53:01;10.60;99.90
18506;DHT22;9382;53.242;10.438;2023-11-19T15:55:28;10.60;99.90
18506;DHT22;9382;53.242;10.438;2023-11-19T15:57:55;10.50;99.90